Fergus Falls, MN (56537)

9:28 AM CDT on May 29, 2015 (GMT -0500)
Wall Lake | | Change Station
CLOSE
Current Station
Personal Weather Station
Location: Fergus Falls, MN
Elevation: 1230 ft
Nearby Weather Stations

Elev 1230 ft 46.28 °N, 95.96 °W | Updated 2 minutes ago

Overcast
Overcast
54.7 °F
Feels Like 54.7 °F
N
1.1
Wind Variable Wind from NNW

Today
High -- | Low -- °F
--% Chance of Precip.
Yesterday
High -- | Low -- °F
Precip. -- in
5:38 AM 9:05 PM
Waxing Gibbous, 84% visible
Pressure 29.97 in
Visibility 5.0 miles
Clouds Overcast 400 ft
Dew Point 53 °F
Humidity 94%
Rainfall 0.27 in
Snow Depth Not available.
UV 1 out of 12
Pollen 9.40 out of 12
Air Quality Not available.
Flu Activity Sporadic
METAR KFFM 291414Z AUTO 36014G23KT 5SM -RA OVC004 12/12 A2997 RMK AO2

More Conditions Fewer Conditions

Pressure 29.97 in
Visibility 5.0 miles
Clouds Overcast 400 ft
Dew Point 53 °F
Humidity 94%
Rainfall 0.27 in
Snow Depth Not available.
UV 1 out of 12
Pollen 9.40 out of 12
Air Quality Not available.
Flu Activity Sporadic
METAR KFFM 291414Z AUTO 36014G23KT 5SM -RA OVC004 12/12 A2997 RMK AO2

More Conditions Fewer Conditions

10-Day Weather Forecast

Almanac

Astronomy

May. 29, 2015 Rise Set
Actual Time
Civil Twilight
Nautical Twilight
Astronomical Twilight
Moon
Length of Visible Light
Length of Day
Tomorrow will be .
, % of the Moon is Illuminated

Today's Extremes

State Highs State Lows

Community

WunderPhotos

Upload Photos

1,825,282 photos uploaded!

WunderBlogs® & News

Nearby

Air Quality

  Air Quality AQ Index Pollutant
Not available.

Snow Depth

Station Depth Elevation

Earthquake Activity

City Distance Mag. Time & Date
Minimum magnitude displayed is 2.5.

Coastal Water Temperatures

Place Temperature

Stations

Nearby Weather Stations

Station Location Temp. Windchill Dew Point Humidity Wind Precip. Elev Updated Type